createdAt,value
2019-06-26T00:00:18.834Z,8.63
2019-06-26T00:02:47.271Z,8.30
2019-06-26T00:05:15.742Z,9.00
2019-06-26T00:07:44.177Z,8.23
2019-06-26T00:10:15.724Z,8.53
2019-06-26T00:12:44.833Z,8.17
2019-06-26T00:15:14.586Z,8.73
2019-06-26T00:17:43.024Z,8.13
2019-06-26T00:20:11.972Z,7.77
2019-06-26T00:22:40.387Z,9.00
2019-06-26T00:25:09.860Z,8.43
2019-06-26T00:27:38.306Z,7.87
2019-06-26T00:30:11.397Z,8.23
2019-06-26T00:32:39.823Z,8.13
2019-06-26T00:35:08.266Z,8.00
2019-06-26T00:37:36.679Z,7.77
2019-06-26T00:40:06.649Z,7.90
2019-06-26T00:42:35.297Z,8.20
2019-06-26T00:45:05.539Z,9.27
2019-06-26T00:47:34.045Z,8.80
2019-06-26T00:50:02.543Z,8.57
2019-06-26T00:52:30.965Z,8.97
2019-06-26T00:54:59.384Z,8.40
2019-06-26T00:57:27.816Z,9.03
2019-06-26T00:59:56.233Z,8.17
2019-06-26T01:02:24.667Z,8.27
2019-06-26T01:04:54.725Z,8.57
2019-06-26T01:07:23.163Z,9.10
2019-06-26T01:09:51.562Z,9.40
2019-06-26T01:12:19.979Z,9.30
2019-06-26T01:14:48.420Z,9.43
2019-06-26T01:17:16.834Z,8.37
2019-06-26T01:19:45.292Z,9.10
2019-06-26T01:22:13.718Z,7.97
2019-06-26T01:24:42.130Z,8.07
2019-06-26T01:27:10.579Z,8.17
2019-06-26T01:29:38.985Z,8.27
2019-06-26T01:32:07.464Z,7.80
2019-06-26T01:34:35.895Z,7.53
2019-06-26T01:37:04.309Z,7.63
2019-06-26T01:39:32.763Z,7.60
2019-06-26T01:42:01.202Z,7.90
2019-06-26T01:44:29.678Z,7.60
2019-06-26T01:46:58.153Z,7.80
2019-06-26T01:49:26.546Z,7.07
2019-06-26T01:51:54.970Z,7.03
2019-06-26T01:54:23.424Z,7.57
2019-06-26T01:56:51.837Z,7.70
2019-06-26T01:59:20.249Z,7.37
2019-06-26T02:01:48.673Z,7.47
2019-06-26T02:04:17.090Z,7.80
2019-06-26T02:06:45.528Z,7.47
2019-06-26T02:09:13.938Z,8.30
2019-06-26T02:11:42.390Z,7.80
2019-06-26T02:14:10.792Z,7.23
2019-06-26T02:16:39.218Z,8.07
2019-06-26T02:19:09.285Z,7.97
2019-06-26T02:21:37.696Z,7.97
2019-06-26T02:24:06.144Z,8.57
2019-06-26T02:26:34.564Z,7.53
2019-06-26T02:29:03.066Z,7.60
2019-06-26T02:31:31.469Z,7.60
2019-06-26T02:33:59.926Z,7.97
2019-06-26T02:36:28.345Z,8.10
2019-06-26T02:38:56.787Z,7.70
2019-06-26T02:41:25.267Z,7.97
2019-06-26T02:43:53.863Z,8.53
2019-06-26T02:46:22.269Z,8.40
2019-06-26T02:48:50.660Z,8.30
2019-06-26T02:51:19.110Z,8.07
2019-06-26T02:53:47.552Z,8.07
2019-06-26T02:56:15.976Z,8.33
2019-06-26T02:58:44.400Z,8.33
2019-06-26T03:01:12.858Z,8.10
2019-06-26T03:03:41.269Z,8.33
2019-06-26T03:06:09.716Z,8.30
2019-06-26T03:08:38.126Z,8.40
2019-06-26T03:11:06.566Z,7.90
2019-06-26T03:13:34.987Z,8.43
2019-06-26T03:16:03.437Z,8.13
2019-06-26T03:18:31.864Z,7.90
2019-06-26T03:21:00.303Z,8.43
2019-06-26T03:23:28.720Z,8.33
2019-06-26T03:25:57.132Z,8.57
2019-06-26T03:28:25.586Z,7.90
2019-06-26T03:30:54.054Z,8.13
2019-06-26T03:33:22.489Z,7.87
2019-06-26T03:35:50.929Z,8.17
2019-06-26T03:38:19.336Z,8.20
2019-06-26T03:40:47.746Z,8.87
2019-06-26T03:43:16.181Z,9.20
2019-06-26T03:45:44.660Z,8.57
2019-06-26T03:48:13.100Z,8.83
2019-06-26T03:50:41.543Z,8.47
2019-06-26T03:53:10.033Z,8.93
2019-06-26T03:55:38.470Z,9.10
2019-06-26T03:58:06.925Z,9.27
2019-06-26T04:00:42.980Z,9.30
2019-06-26T04:03:11.582Z,8.70
2019-06-26T04:05:40.003Z,8.27
2019-06-26T04:08:08.498Z,8.80
2019-06-26T04:10:37.033Z,8.80
2019-06-26T04:13:05.648Z,9.43
2019-06-26T04:15:42.162Z,9.30
2019-06-26T04:18:04.615Z,9.50
2019-06-26T04:20:33.059Z,8.50
2019-06-26T04:23:01.495Z,9.93
2019-06-26T04:25:29.977Z,9.63
2019-06-26T04:27:58.392Z,9.77
2019-06-26T04:30:26.841Z,10.23
2019-06-26T04:32:55.275Z,9.73
2019-06-26T04:35:23.687Z,9.90
2019-06-26T04:37:52.316Z,10.10
2019-06-26T04:40:20.906Z,10.90
2019-06-26T04:42:49.340Z,10.80
2019-06-26T04:45:18.589Z,12.10
2019-06-26T04:47:47.284Z,11.80
2019-06-26T04:50:16.439Z,11.90
2019-06-26T04:52:44.881Z,10.80
2019-06-26T04:55:13.976Z,11.90
2019-06-26T04:57:42.391Z,12.77
2019-06-26T05:00:11.781Z,11.27
2019-06-26T05:02:40.204Z,10.70
2019-06-26T05:05:09.271Z,11.80
2019-06-26T05:07:37.685Z,12.07
2019-06-26T05:10:09.165Z,11.10
2019-06-26T05:12:37.588Z,12.10
2019-06-26T05:15:08.076Z,11.23
2019-06-26T05:17:36.590Z,11.43
2019-06-26T05:20:09.973Z,11.20
2019-06-26T05:22:38.342Z,11.60
2019-06-26T05:25:07.910Z,12.73
2019-06-26T05:27:36.704Z,11.80
2019-06-26T05:30:10.234Z,11.33
2019-06-26T05:32:38.911Z,11.17
2019-06-26T05:35:11.499Z,11.30
2019-06-26T05:37:40.095Z,11.30
2019-06-26T05:40:13.785Z,10.90
2019-06-26T05:42:42.237Z,11.10
2019-06-26T05:45:12.864Z,11.70
2019-06-26T05:47:41.378Z,10.27
2019-06-26T05:50:11.977Z,10.00
2019-06-26T05:52:42.757Z,10.80
2019-06-26T05:55:11.497Z,10.17
2019-06-26T05:57:41.910Z,9.73
2019-06-26T06:00:11.870Z,10.53
2019-06-26T06:02:40.316Z,10.40
2019-06-26T06:05:09.671Z,9.93
2019-06-26T06:07:38.164Z,9.63
2019-06-26T06:10:07.979Z,8.83
2019-06-26T06:12:36.486Z,8.90
2019-06-26T06:15:08.615Z,10.83
2019-06-26T06:17:37.206Z,11.30
2019-06-26T06:20:07.046Z,10.60
2019-06-26T06:22:35.558Z,10.27
2019-06-26T06:25:05.031Z,10.70
2019-06-26T06:27:33.458Z,10.63
2019-06-26T06:30:01.869Z,11.20
2019-06-26T06:32:30.324Z,11.03
2019-06-26T06:34:58.774Z,10.80
2019-06-26T06:37:27.174Z,9.43
2019-06-26T06:39:55.609Z,10.37
2019-06-26T06:42:24.073Z,12.00
2019-06-26T06:44:52.563Z,11.73
2019-06-26T06:47:20.996Z,9.77
2019-06-26T06:49:49.407Z,9.43
2019-06-26T06:52:17.809Z,10.27
2019-06-26T06:54:46.265Z,11.03
2019-06-26T06:57:14.669Z,10.17
2019-06-26T06:59:43.088Z,10.33
2019-06-26T07:02:11.533Z,9.30
2019-06-26T07:04:39.947Z,9.10
2019-06-26T07:07:08.353Z,9.60
2019-06-26T07:09:36.782Z,8.73
2019-06-26T07:12:05.442Z,8.57
2019-06-26T07:14:33.881Z,8.07
2019-06-26T07:17:02.319Z,9.30
2019-06-26T07:19:30.750Z,8.93
2019-06-26T07:21:59.161Z,8.60
2019-06-26T07:24:27.611Z,8.08
2019-06-26T07:26:56.024Z,8.67
2019-06-26T07:29:25.543Z,7.77
2019-06-26T07:31:54.010Z,8.07
2019-06-26T07:34:22.657Z,7.63
2019-06-26T07:36:51.069Z,7.77
2019-06-26T07:39:19.520Z,7.63
2019-06-26T07:41:47.949Z,7.40
2019-06-26T07:44:18.345Z,7.20
2019-06-26T07:46:46.844Z,7.20
2019-06-26T07:49:15.289Z,7.90
2019-06-26T07:51:43.703Z,7.58
2019-06-26T07:54:12.119Z,7.57
2019-06-26T07:56:40.560Z,6.97
2019-06-26T07:59:08.951Z,8.13
2019-06-26T08:01:37.447Z,7.20
2019-06-26T08:04:05.781Z,8.27
2019-06-26T08:06:34.235Z,8.00
2019-06-26T08:09:02.712Z,7.83
2019-06-26T08:11:32.726Z,8.10
2019-06-26T08:14:01.145Z,8.03
2019-06-26T08:16:29.548Z,7.92
2019-06-26T08:18:57.953Z,7.70
2019-06-26T08:21:26.385Z,6.77
2019-06-26T08:23:54.842Z,7.42
2019-06-26T08:26:23.273Z,12.98
2019-06-26T08:28:51.694Z,9.50
2019-06-26T08:31:20.108Z,7.25
2019-06-26T08:33:48.543Z,7.47
2019-06-26T08:36:16.954Z,8.05
2019-06-26T08:38:45.437Z,8.23
2019-06-26T08:41:13.945Z,8.13
2019-06-26T08:43:42.347Z,8.47
2019-06-26T08:46:10.756Z,7.95
2019-06-26T08:48:40.731Z,8.28
2019-06-26T08:51:09.297Z,8.55
2019-06-26T08:53:37.737Z,8.03
2019-06-26T08:56:06.308Z,8.60
2019-06-26T08:58:34.877Z,8.40
2019-06-26T09:01:03.333Z,9.78
2019-06-26T09:03:31.706Z,9.40
2019-06-26T09:06:00.315Z,11.00
2019-06-26T09:08:29.155Z,8.65
2019-06-26T09:10:57.628Z,8.53
2019-06-26T09:13:26.041Z,8.10
2019-06-26T09:15:54.439Z,7.95
2019-06-26T09:18:34.932Z,7.33
2019-06-26T09:20:53.037Z,7.35
2019-06-26T09:23:21.448Z,7.90
2019-06-26T09:25:50.689Z,7.83
2019-06-26T09:28:19.144Z,6.72
2019-06-26T09:30:47.580Z,10.03
2019-06-26T09:33:18.999Z,8.88
2019-06-26T09:35:47.548Z,8.40
2019-06-26T09:38:16.031Z,7.45
2019-06-26T09:40:44.468Z,7.70
2019-06-26T09:43:13.041Z,8.63
2019-06-26T09:45:41.586Z,7.83
2019-06-26T09:48:10.062Z,7.87
2019-06-26T09:50:38.542Z,8.58
2019-06-26T09:53:07.185Z,8.55
2019-06-26T09:55:35.585Z,9.45
2019-06-26T09:58:04.086Z,8.73
2019-06-26T10:00:32.832Z,7.83
2019-06-26T10:03:02.524Z,8.33
2019-06-26T10:05:30.909Z,8.50
2019-06-26T10:07:59.377Z,9.10
2019-06-26T10:10:27.877Z,8.63
2019-06-26T10:12:56.289Z,8.73
2019-06-26T10:15:24.921Z,9.58
2019-06-26T10:17:53.330Z,9.75
2019-06-26T10:20:21.953Z,9.23
2019-06-26T10:22:50.422Z,8.18
2019-06-26T10:25:19.076Z,8.73
2019-06-26T10:27:47.561Z,9.13
2019-06-26T10:30:17.317Z,8.80
2019-06-26T10:32:45.781Z,8.63
2019-06-26T10:35:14.806Z,8.50
2019-06-26T10:37:43.228Z,8.93
2019-06-26T10:40:15.834Z,8.83
2019-06-26T10:42:42.080Z,8.93
2019-06-26T10:45:11.085Z,8.58
2019-06-26T10:47:40.114Z,8.50
2019-06-26T10:50:09.042Z,8.70
2019-06-26T10:52:37.632Z,9.23
2019-06-26T10:55:07.491Z,8.65
2019-06-26T10:57:36.290Z,9.93
2019-06-26T11:00:10.013Z,9.20
2019-06-26T11:02:38.607Z,8.90
2019-06-26T11:05:08.360Z,9.23
2019-06-26T11:07:37.122Z,8.50
2019-06-26T11:10:09.855Z,9.25
2019-06-26T11:12:38.411Z,9.78
2019-06-26T11:15:08.345Z,8.53
2019-06-26T11:17:37.529Z,8.65
2019-06-26T11:20:08.123Z,8.73
2019-06-26T11:22:36.833Z,8.88
2019-06-26T11:25:09.583Z,8.75
2019-06-26T11:27:38.013Z,8.10
2019-06-26T11:30:11.338Z,8.13
2019-06-26T11:32:39.771Z,8.83
2019-06-26T11:35:09.379Z,6.08
2019-06-26T11:37:38.007Z,5.80
2019-06-26T11:40:07.559Z,6.75
2019-06-26T11:42:36.123Z,6.12
2019-06-26T11:45:07.507Z,6.47
2019-06-26T11:47:36.244Z,6.03
2019-06-26T11:50:09.259Z,6.15
2019-06-26T11:52:37.975Z,6.40
2019-06-26T11:55:08.930Z,7.25
2019-06-26T11:57:38.223Z,6.65
2019-06-26T12:00:18.284Z,6.87
2019-06-26T12:02:51.875Z,6.67
2019-06-26T12:05:22.363Z,6.90
2019-06-26T12:07:50.787Z,6.58
2019-06-26T12:10:19.739Z,7.50
2019-06-26T12:12:48.176Z,6.75
2019-06-26T12:15:17.995Z,7.58
2019-06-26T12:17:46.424Z,6.37
2019-06-26T12:20:19.300Z,7.25
2019-06-26T12:22:45.475Z,6.78
2019-06-26T12:25:14.125Z,6.92
2019-06-26T12:27:42.706Z,6.53
2019-06-26T12:30:11.518Z,6.45
2019-06-26T12:32:42.709Z,6.28
2019-06-26T12:35:10.898Z,6.62
2019-06-26T12:37:39.345Z,6.17
2019-06-26T12:40:08.357Z,6.47
2019-06-26T12:42:36.912Z,6.83
2019-06-26T12:45:07.374Z,6.55
2019-06-26T12:47:35.890Z,6.30
2019-06-26T12:50:06.750Z,6.20
2019-06-26T12:52:35.169Z,5.70
2019-06-26T12:55:05.053Z,6.03
2019-06-26T12:57:33.560Z,7.75
2019-06-26T13:00:02.812Z,6.53
2019-06-26T13:02:31.386Z,7.10
2019-06-26T13:04:59.915Z,6.92
2019-06-26T13:07:29.847Z,7.20
2019-06-26T13:10:09.185Z,6.78
2019-06-26T13:12:40.315Z,6.47
2019-06-26T13:15:11.948Z,7.05
2019-06-26T13:17:46.969Z,7.78
2019-06-26T13:20:20.975Z,7.80
2019-06-26T13:22:54.166Z,7.10
2019-06-26T13:25:28.425Z,6.70
2019-06-26T13:28:03.558Z,6.95
2019-06-26T13:30:41.010Z,7.05
2019-06-26T13:33:11.954Z,7.37
2019-06-26T13:35:44.338Z,6.85
2019-06-26T13:38:14.782Z,6.72
2019-06-26T13:40:46.487Z,7.22
2019-06-26T13:43:18.833Z,7.53
2019-06-26T13:45:49.558Z,8.78
2019-06-26T13:48:17.982Z,6.83
2019-06-26T13:50:46.557Z,6.47
2019-06-26T13:53:15.040Z,6.87
2019-06-26T13:55:43.523Z,7.50
2019-06-26T13:58:12.106Z,7.65
2019-06-26T14:00:40.506Z,6.95
2019-06-26T14:03:08.997Z,6.85
2019-06-26T14:05:37.425Z,7.40
2019-06-26T14:08:05.872Z,7.12
2019-06-26T14:10:34.319Z,7.70
2019-06-26T14:13:02.819Z,7.55
2019-06-26T14:15:31.257Z,7.50
2019-06-26T14:17:59.674Z,6.85
2019-06-26T14:20:28.114Z,7.53
2019-06-26T14:22:56.562Z,6.72
2019-06-26T14:25:24.975Z,7.60
2019-06-26T14:27:53.503Z,7.28
2019-06-26T14:30:22.368Z,6.87
2019-06-26T14:32:50.849Z,7.67
2019-06-26T14:35:21.547Z,6.62
2019-06-26T14:37:49.980Z,6.87
2019-06-26T14:40:18.488Z,7.33
2019-06-26T14:42:46.924Z,6.67
2019-06-26T14:45:16.305Z,7.03
2019-06-26T14:47:44.736Z,7.70
2019-06-26T14:50:13.575Z,8.60
2019-06-26T14:52:45.685Z,6.67
2019-06-26T14:55:12.527Z,7.97
2019-06-26T14:57:40.948Z,7.17
2019-06-26T15:00:10.551Z,8.13
2019-06-26T15:02:39.335Z,8.28
2019-06-26T15:05:08.343Z,7.03
2019-06-26T15:07:36.824Z,7.22
2019-06-26T15:10:08.873Z,8.43
2019-06-26T15:12:37.455Z,7.65
2019-06-26T15:15:06.696Z,7.42
2019-06-26T15:17:35.177Z,7.45
2019-06-26T15:20:04.659Z,7.30
2019-06-26T15:22:33.108Z,7.78
2019-06-26T15:25:01.610Z,7.10
2019-06-26T15:27:30.036Z,6.87
2019-06-26T15:29:58.459Z,7.25
2019-06-26T15:32:26.889Z,10.15
2019-06-26T15:34:55.341Z,17.67
2019-06-26T15:37:24.126Z,9.85
2019-06-26T15:39:52.557Z,7.12
2019-06-26T15:42:21.079Z,7.80
2019-06-26T15:44:49.498Z,7.35
2019-06-26T15:47:17.935Z,7.40
2019-06-26T15:49:46.347Z,7.95
2019-06-26T15:52:15.632Z,9.35
2019-06-26T15:54:44.192Z,7.83
2019-06-26T15:57:13.445Z,8.58
2019-06-26T15:59:41.864Z,8.40
2019-06-26T16:02:10.430Z,8.53
2019-06-26T16:04:38.888Z,8.35
2019-06-26T16:07:07.399Z,8.65
2019-06-26T16:09:35.861Z,7.40
2019-06-26T16:12:04.372Z,7.62
2019-06-26T16:14:32.823Z,7.50
2019-06-26T16:17:02.905Z,7.83
2019-06-26T16:19:31.375Z,7.50
2019-06-26T16:21:59.786Z,8.53
2019-06-26T16:24:30.235Z,8.40
2019-06-26T16:26:58.650Z,8.03
2019-06-26T16:29:27.098Z,7.80
2019-06-26T16:31:55.509Z,8.55
2019-06-26T16:34:23.947Z,9.20
2019-06-26T16:36:52.384Z,7.58
2019-06-26T16:39:22.426Z,7.53
2019-06-26T16:41:50.875Z,8.65
2019-06-26T16:44:19.292Z,8.40
2019-06-26T16:46:47.838Z,8.35
2019-06-26T16:49:16.268Z,10.13
2019-06-26T16:51:44.713Z,10.40
2019-06-26T16:54:13.140Z,9.65
2019-06-26T16:56:41.596Z,8.15
2019-06-26T16:59:10.429Z,7.80
2019-06-26T17:01:38.829Z,7.55
2019-06-26T17:04:07.312Z,8.45
2019-06-26T17:06:35.754Z,7.78
2019-06-26T17:09:06.064Z,8.95
2019-06-26T17:11:34.495Z,7.85
2019-06-26T17:14:03.026Z,8.33
2019-06-26T17:16:31.429Z,9.13
2019-06-26T17:18:59.866Z,7.67
2019-06-26T17:21:28.303Z,8.78
2019-06-26T17:23:56.734Z,9.63
2019-06-26T17:26:25.168Z,8.83
2019-06-26T17:28:53.605Z,8.40
2019-06-26T17:31:22.073Z,10.23
2019-06-26T17:33:50.479Z,8.60
2019-06-26T17:36:18.900Z,8.58
2019-06-26T17:38:47.402Z,10.65
2019-06-26T17:41:15.829Z,9.43
2019-06-26T17:43:44.236Z,8.90
2019-06-26T17:46:12.685Z,9.20
2019-06-26T17:48:41.086Z,9.03
2019-06-26T17:51:09.611Z,9.25
2019-06-26T17:53:37.998Z,9.20
2019-06-26T17:56:06.523Z,10.05
2019-06-26T17:58:34.936Z,8.80
2019-06-26T18:01:03.372Z,9.25
2019-06-26T18:03:31.825Z,9.60
2019-06-26T18:06:00.310Z,9.43
2019-06-26T18:08:31.108Z,10.55
2019-06-26T18:11:01.053Z,9.70
2019-06-26T18:13:31.111Z,9.55
2019-06-26T18:16:01.210Z,10.13
2019-06-26T18:18:31.346Z,9.20
2019-06-26T18:21:01.992Z,10.03
2019-06-26T18:23:37.933Z,10.23
2019-06-26T18:26:13.045Z,9.85
2019-06-26T18:28:36.284Z,10.48
2019-06-26T18:31:05.613Z,9.23
2019-06-26T18:33:35.856Z,11.33
2019-06-26T18:36:06.014Z,9.98
2019-06-26T18:38:35.730Z,11.95
2019-06-26T18:41:07.346Z,10.00
2019-06-26T18:43:37.549Z,9.75
2019-06-26T18:46:08.931Z,10.60
2019-06-26T18:48:38.935Z,10.60
2019-06-26T18:51:09.084Z,10.00
2019-06-26T18:53:52.663Z,9.90
2019-06-26T18:56:12.675Z,9.93
2019-06-26T18:58:42.699Z,10.50
2019-06-26T19:01:13.269Z,9.38
2019-06-26T19:03:43.885Z,10.88
2019-06-26T19:06:13.986Z,10.93
2019-06-26T19:08:43.812Z,10.72
2019-06-26T19:11:14.522Z,11.38
2019-06-26T19:13:43.809Z,10.10
2019-06-26T19:16:15.688Z,11.15
2019-06-26T19:18:46.033Z,12.23
2019-06-26T19:21:19.046Z,11.30
2019-06-26T19:23:51.507Z,10.95
2019-06-26T19:26:23.046Z,12.28
2019-06-26T19:28:54.404Z,11.50
2019-06-26T19:31:25.682Z,12.95
2019-06-26T19:33:56.158Z,11.43
2019-06-26T19:36:31.038Z,11.25
2019-06-26T19:39:02.739Z,11.65
2019-06-26T19:41:32.723Z,11.90
2019-06-26T19:44:04.411Z,12.93
2019-06-26T19:46:34.301Z,11.70
2019-06-26T19:49:06.968Z,11.48
2019-06-26T19:51:37.132Z,12.28
2019-06-26T19:54:08.298Z,12.65
2019-06-26T19:56:39.083Z,12.73
2019-06-26T19:59:10.124Z,13.65
2019-06-26T20:01:40.605Z,12.95
2019-06-26T20:04:13.986Z,13.45
2019-06-26T20:06:46.974Z,13.48
2019-06-26T20:09:15.706Z,13.22
2019-06-26T20:11:44.134Z,13.05
2019-06-26T20:14:12.572Z,14.38
2019-06-26T20:16:41.058Z,12.95
2019-06-26T20:19:09.760Z,13.53
2019-06-26T20:21:38.970Z,13.30
2019-06-26T20:24:08.260Z,13.15
2019-06-26T20:26:37.008Z,13.78
2019-06-26T20:29:05.530Z,14.25
2019-06-26T20:31:34.002Z,13.85
2019-06-26T20:34:02.444Z,14.30
2019-06-26T20:36:30.876Z,14.13
2019-06-26T20:38:59.301Z,15.00
2019-06-26T20:41:27.731Z,14.03
2019-06-26T20:43:56.256Z,15.68
2019-06-26T20:46:24.665Z,15.28
2019-06-26T20:48:53.072Z,15.45
2019-06-26T20:51:22.777Z,13.78
2019-06-26T20:53:52.245Z,15.58
2019-06-26T20:56:25.678Z,14.68
2019-06-26T20:58:54.449Z,14.58
2019-06-26T21:01:24.443Z,15.10
2019-06-26T21:03:53.384Z,14.35
2019-06-26T21:06:23.521Z,13.62
2019-06-26T21:08:54.442Z,15.13
2019-06-26T21:11:24.540Z,14.00
2019-06-26T21:13:54.519Z,14.00
2019-06-26T21:16:24.390Z,14.28
2019-06-26T21:18:54.785Z,15.58
2019-06-26T21:21:25.118Z,13.60
2019-06-26T21:23:55.457Z,14.43
2019-06-26T21:26:25.624Z,13.48
2019-06-26T21:28:56.701Z,23.30
2019-06-26T21:31:28.516Z,16.73
2019-06-26T21:33:59.530Z,14.28
2019-06-26T21:36:29.646Z,14.30
2019-06-26T21:39:00.634Z,13.58
2019-06-26T21:41:35.365Z,14.00
2019-06-26T21:44:05.662Z,13.60
2019-06-26T21:46:37.317Z,13.75
2019-06-26T21:49:07.963Z,13.53
2019-06-26T21:51:58.608Z,14.03
2019-06-26T21:54:31.136Z,13.90
2019-06-26T21:57:02.146Z,12.87
2019-06-26T21:59:33.614Z,13.33
2019-06-26T22:02:05.503Z,13.90
2019-06-26T22:04:38.198Z,13.32
2019-06-26T22:07:09.735Z,13.67
2019-06-26T22:09:41.738Z,12.88
2019-06-26T22:12:13.023Z,14.03
2019-06-26T22:14:44.039Z,12.90
2019-06-26T22:17:14.974Z,14.10
2019-06-26T22:19:46.427Z,14.60
2019-06-26T22:22:17.733Z,13.33
2019-06-26T22:24:47.803Z,13.35
2019-06-26T22:27:18.162Z,13.97
2019-06-26T22:29:49.089Z,14.73
2019-06-26T22:32:23.121Z,14.18
2019-06-26T22:34:53.932Z,13.87
2019-06-26T22:37:23.816Z,14.80
2019-06-26T22:39:54.063Z,14.00
2019-06-26T22:42:25.190Z,14.07
2019-06-26T22:44:55.272Z,12.88
2019-06-26T22:47:25.370Z,12.75
2019-06-26T22:49:56.244Z,13.23
2019-06-26T22:52:26.581Z,13.43
2019-06-26T22:54:58.250Z,14.20
2019-06-26T22:57:29.110Z,12.67
2019-06-26T22:59:59.866Z,14.10
2019-06-26T23:02:50.753Z,13.83
2019-06-26T23:05:20.974Z,12.43
2019-06-26T23:07:50.717Z,13.33
2019-06-26T23:10:21.582Z,13.50
2019-06-26T23:12:52.084Z,14.13
2019-06-26T23:15:22.146Z,13.87
2019-06-26T23:17:52.510Z,13.40
2019-06-26T23:20:22.778Z,12.90
2019-06-26T23:22:53.430Z,13.03
2019-06-26T23:25:23.755Z,13.47
2019-06-26T23:27:54.556Z,13.80
2019-06-26T23:30:24.260Z,12.50
2019-06-26T23:32:53.463Z,13.35
2019-06-26T23:35:23.802Z,12.50
2019-06-26T23:37:53.459Z,12.63
2019-06-26T23:40:24.508Z,13.50
2019-06-26T23:42:54.833Z,13.47
2019-06-26T23:45:24.939Z,13.70
2019-06-26T23:47:55.600Z,13.00
2019-06-26T23:50:26.070Z,13.03
2019-06-26T23:52:56.227Z,13.53
2019-06-26T23:55:26.419Z,12.93
2019-06-26T23:57:59.456Z,12.60
